Time;durP1;ratioP1;P1;durP2;ratioP2;P2;SDS_P1;SDS_P2;PMS_P1;PMS_P2;Temp;Humidity;BMP_temperature;BMP_pressure;BME280_temperature;BME280_humidity;BME280_pressure;Samples;Min_cycle;Max_cycle;Signal;HPM_P1;HPM_P2
2022/04/06 00:00:44;;;;;;;;;;;;;;;-145.06;0.00;60892.56;4914309;28;20262;-87
2022/04/06 00:03:23;;;;;;;;;;;;;;;-145.06;0.00;60892.56;4889680;28;19920;-88
2022/04/06 00:06:02;;;;;;;;;;;;;;;-145.06;0.00;60892.56;4881846;28;19963;-88
2022/04/06 00:08:41;;;;;;;;;;;;;;;-145.06;0.00;60892.56;4899416;28;19916;-87
2022/04/06 00:11:20;;;;;;;;;;;;;;;-145.06;0.00;60892.56;4893225;28;19916;-88
2022/04/06 00:14:00;;;;;;;;;;;;;;;-145.06;0.00;60892.56;4925948;28;20467;-88
2022/04/06 00:16:39;;;;;;;;;;;;;;;-145.06;0.00;60892.56;4900029;28;19924;-87
2022/04/06 00:19:17;;;;;;;;;;;;;;;10.68;0.00;60892.56;4884411;28;19995;-89
2022/04/06 00:21:56;;;;;;;;;;;;;;;10.68;0.00;60892.56;4887119;28;20361;-88
2022/04/06 00:24:35;;;;;;;;;;;;;;;10.67;0.00;60892.56;4882829;28;20007;-88
2022/04/06 00:27:14;;;;;;;;;;;;;;;10.64;0.00;60892.56;4896421;28;20011;-88
2022/04/06 00:29:53;;;;;;;;;;;;;;;10.68;0.00;60892.56;4895389;28;19920;-87
2022/04/06 00:32:32;;;;;;;;;;;;;;;10.68;0.00;60892.56;4919044;28;19916;-87
2022/04/06 00:35:29;;;;;;;;;;;;;;;10.68;0.00;60892.56;4891522;28;19920;-87
2022/04/06 00:38:08;;;;;;;;;;;;;;;10.68;0.00;60892.56;4880379;28;19963;-88
2022/04/06 00:40:47;;;;;;;;;;;;;;;10.62;0.00;60892.56;4890747;28;19963;-88
2022/04/06 00:43:26;;;;;;;;;;;;;;;10.61;0.00;60892.56;4895955;28;20377;-87
2022/04/06 00:46:05;;;;;;;;;;;;;;;10.59;0.00;60892.56;4897240;28;19916;-88
2022/04/06 00:48:44;;;;;;;;;;;;;;;10.68;0.00;60892.56;4906231;28;19919;-87
2022/04/06 00:51:23;;;;;;;;;;;;;;;10.68;0.00;60892.56;4921921;28;19920;-87
2022/04/06 00:54:02;;;;;;;;;;;;;;;10.68;0.00;60892.56;4897606;28;19916;-88
2022/04/06 00:56:42;;;;;;;;;;;;;;;10.68;0.00;60892.56;4914175;28;19932;-88
2022/04/06 00:59:21;;;;;;;;;;;;;;;10.53;0.00;60892.56;4913341;28;19912;-88
2022/04/06 01:02:00;;;;;;;;;;;;;;;10.53;0.00;60892.56;4896031;28;19920;-88
2022/04/06 01:04:39;;;;;;;;;;;;;;;10.68;0.00;60892.56;4915293;28;19916;-87
2022/04/06 01:07:19;;;;;;;;;;;;;;;10.68;0.00;60892.56;4891402;28;20377;-87
2022/04/06 01:09:58;;;;;;;;;;;;;;;10.68;0.00;60892.56;4895261;28;19956;-88
2022/04/06 01:12:40;;;;;;;;;;;;;;;10.68;0.00;60892.56;4890899;28;19955;-88
2022/04/06 01:15:19;;;;;;;;;;;;;;;10.68;0.00;60892.56;4912745;28;19916;-87
2022/04/06 01:17:58;;;;;;;;;;;;;;;10.68;0.00;60892.56;4897173;28;20310;-87
2022/04/06 01:20:37;;;;;;;;;;;;;;;10.68;0.00;60892.56;4913566;28;19947;-88
2022/04/06 01:23:16;;;;;;;;;;;;;;;10.68;0.00;60892.56;4898698;28;19916;-88
2022/04/06 01:25:55;;;;;;;;;;;;;;;-145.06;0.00;60892.56;4892775;28;19924;-88
2022/04/06 01:28:34;;;;;;;;;;;;;;;10.68;0.00;60892.56;4910051;28;19913;-88
2022/04/06 01:31:13;;;;;;;;;;;;;;;10.52;0.00;60892.56;4893134;28;19916;-88
2022/04/06 01:33:52;;;;;;;;;;;;;;;10.60;0.00;60892.56;4906556;28;19995;-88
2022/04/06 01:36:31;;;;;;;;;;;;;;;10.68;0.00;60892.56;4895063;28;20010;-88
2022/04/06 01:39:10;;;;;;;;;;;;;;;10.68;0.00;60892.56;4918316;28;20008;-87
2022/04/06 01:41:49;;;;;;;;;;;;;;;10.68;0.00;60892.56;4903147;28;20362;-88
2022/04/06 01:44:29;;;;;;;;;;;;;;;10.68;0.00;60892.56;4916745;28;19916;-88
2022/04/06 01:47:07;;;;;;;;;;;;;;;10.49;0.00;60892.56;4891885;28;19935;-88
2022/04/06 01:52:45;;;;;;;;;;;;;;;10.68;0.00;60892.56;4908608;28;19959;-88
2022/04/06 01:55:24;;;;;;;;;;;;;;;10.68;0.00;60892.56;4897625;28;19955;-88
2022/04/06 01:58:03;;;;;;;;;;;;;;;10.68;0.00;60892.56;4918784;28;19924;-88
2022/04/06 02:00:42;;;;;;;;;;;;;;;10.68;0.00;60892.56;4896200;28;19959;-88
2022/04/06 02:03:21;;;;;;;;;;;;;;;10.68;0.00;60892.56;4891412;28;19916;-88
2022/04/06 02:06:00;;;;;;;;;;;;;;;10.68;0.00;60892.56;4902332;28;19959;-88
2022/04/06 02:08:39;;;;;;;;;;;;;;;10.68;0.00;60892.56;4909165;28;19916;-89
2022/04/06 02:11:18;;;;;;;;;;;;;;;10.68;0.00;60892.56;4901234;28;19916;-88
2022/04/06 02:13:57;;;;;;;;;;;;;;;10.68;0.00;60892.56;4901326;28;20270;-88
2022/04/06 02:16:37;;;;;;;;;;;;;;;10.68;0.00;60892.56;4900968;28;19924;-88
2022/04/06 02:19:15;;;;;;;;;;;;;;;10.68;0.00;60892.56;4894738;28;19920;-88
2022/04/06 02:21:54;;;;;;;;;;;;;;;10.68;0.00;60892.56;4908510;28;19920;-88
2022/04/06 02:24:34;;;;;;;;;;;;;;;10.68;0.00;60892.56;4891868;28;19920;-88
2022/04/06 02:27:13;;;;;;;;;;;;;;;10.37;0.00;60892.56;4899753;28;19951;-87
2022/04/06 02:29:52;;;;;;;;;;;;;;;10.68;0.00;60892.56;4908622;28;19956;-88
2022/04/06 02:32:31;;;;;;;;;;;;;;;10.68;0.00;60892.56;4916304;28;19912;-89
2022/04/06 02:35:10;;;;;;;;;;;;;;;10.68;0.00;60892.56;4928381;28;19964;-89
2022/04/06 02:37:50;;;;;;;;;;;;;;;10.68;0.00;60892.56;4924318;28;19928;-88
2022/04/06 02:40:32;;;;;;;;;;;;;;;10.68;0.00;60892.56;4901663;28;19947;-87
2022/04/06 02:43:11;;;;;;;;;;;;;;;10.68;0.00;60892.56;4918556;28;19916;-89
2022/04/06 02:45:50;;;;;;;;;;;;;;;-145.06;0.00;60892.56;4895604;28;20433;-89
2022/04/06 02:48:29;;;;;;;;;;;;;;;-145.06;0.00;60892.56;4889327;28;19959;-88
2022/04/06 02:51:08;;;;;;;;;;;;;;;-145.06;0.00;60892.56;4896929;28;20350;-88
2022/04/06 02:53:47;;;;;;;;;;;;;;;-145.06;0.00;60892.56;4883140;28;19924;-88
2022/04/06 02:56:27;;;;;;;;;;;;;;;-145.06;0.00;60892.56;4895897;28;20007;-88
2022/04/06 02:59:07;;;;;;;;;;;;;;;-145.06;0.00;60892.56;4919374;28;20432;-89
2022/04/06 03:01:45;;;;;;;;;;;;;;;-145.06;0.00;60892.56;4889900;28;19924;-88
2022/04/06 03:04:24;;;;;;;;;;;;;;;10.68;0.00;60892.56;4890244;28;20274;-88
2022/04/06 03:07:03;;;;;;;;;;;;;;;-145.06;0.00;60892.56;4901428;28;19912;-88
2022/04/06 03:09:42;;;;;;;;;;;;;;;-145.06;0.00;60892.56;4895220;28;19920;-88
2022/04/06 03:12:21;;;;;;;;;;;;;;;10.68;0.00;60892.56;4903020;28;19912;-88
2022/04/06 03:15:01;;;;;;;;;;;;;;;-145.06;0.00;60892.56;4905740;28;19920;-88
2022/04/06 03:17:39;;;;;;;;;;;;;;;-145.06;0.00;60892.56;4887102;28;19916;-88
2022/04/06 03:20:18;;;;;;;;;;;;;;;-145.06;0.00;60892.56;4894573;28;20353;-88
2022/04/06 03:22:57;;;;;;;;;;;;;;;-145.06;0.00;60892.56;4900702;28;19916;-87
2022/04/06 03:25:36;;;;;;;;;;;;;;;-145.06;0.00;60892.56;4919925;28;20011;-87
2022/04/06 03:28:15;;;;;;;;;;;;;;;-145.06;0.00;60892.56;4921505;28;19920;-88
2022/04/06 03:30:54;;;;;;;;;;;;;;;-145.06;0.00;60892.56;4918770;28;19920;-88
2022/04/06 03:33:34;;;;;;;;;;;;;;;-145.06;0.00;60892.56;4900222;28;19920;-89
2022/04/06 03:36:12;;;;;;;;;;;;;;;-145.06;0.00;60892.56;4901125;28;19912;-88
2022/04/06 03:38:51;;;;;;;;;;;;;;;-145.06;0.00;60892.56;4895529;28;19920;-88
2022/04/06 03:41:30;;;;;;;;;;;;;;;-145.06;0.00;60892.56;4913327;28;19920;-89
2022/04/06 03:44:09;;;;;;;;;;;;;;;-145.06;0.00;60892.56;4900282;28;19995;-87
2022/04/06 03:46:48;;;;;;;;;;;;;;;-145.06;0.00;60892.56;4893160;28;19920;-87
2022/04/06 03:49:27;;;;;;;;;;;;;;;-145.06;0.00;60892.56;4906706;28;19920;-89
2022/04/06 03:52:06;;;;;;;;;;;;;;;-145.06;0.00;60892.56;4887647;28;20277;-88
2022/04/06 03:54:46;;;;;;;;;;;;;;;-145.06;0.00;60892.56;4902981;28;19916;-88
2022/04/06 03:57:25;;;;;;;;;;;;;;;-145.06;0.00;60892.56;4901581;28;20377;-88
2022/04/06 04:00:05;;;;;;;;;;;;;;;-145.06;0.00;60892.56;4923273;28;20541;-87
2022/04/06 04:02:45;;;;;;;;;;;;;;;-145.06;0.00;60892.56;4935241;28;19935;-88
2022/04/06 04:05:25;;;;;;;;;;;;;;;-145.06;0.00;60892.56;4905909;28;19919;-88
2022/04/06 04:08:05;;;;;;;;;;;;;;;-145.06;0.00;60892.56;4925484;28;19916;-87
2022/04/06 04:10:43;;;;;;;;;;;;;;;-145.06;0.00;60892.56;4890774;28;19920;-88
2022/04/06 04:13:22;;;;;;;;;;;;;;;-145.06;0.00;60892.56;4908143;28;19916;-88
2022/04/06 04:16:01;;;;;;;;;;;;;;;-145.06;0.00;60892.56;4910593;28;19951;-87
2022/04/06 04:18:41;;;;;;;;;;;;;;;-145.06;0.00;60892.56;4907936;28;20373;-88
2022/04/06 04:21:32;;;;;;;;;;;;;;;-145.06;0.00;60892.56;4925268;28;19912;-89
2022/04/06 04:24:11;;;;;;;;;;;;;;;-145.06;0.00;60892.56;4907361;28;19971;-89
2022/04/06 04:26:50;;;;;;;;;;;;;;;-145.06;0.00;60892.56;4911633;28;20413;-87
2022/04/06 04:29:29;;;;;;;;;;;;;;;-145.06;0.00;60892.56;4888583;28;19916;-88
2022/04/06 04:32:10;;;;;;;;;;;;;;;-145.06;0.00;60892.56;4914571;28;19916;-89
2022/04/06 04:34:49;;;;;;;;;;;;;;;-145.06;0.00;60892.56;4889757;28;19955;-88
2022/04/06 04:37:28;;;;;;;;;;;;;;;-145.06;0.00;60892.56;4899705;28;20349;-89
2022/04/06 04:40:07;;;;;;;;;;;;;;;-145.06;0.00;60892.56;4910872;28;19917;-87
2022/04/06 04:42:46;;;;;;;;;;;;;;;-145.06;0.00;60892.56;4894403;28;19916;-89
2022/04/06 04:45:25;;;;;;;;;;;;;;;-145.06;0.00;60892.56;4915125;28;20270;-88
2022/04/06 04:48:04;;;;;;;;;;;;;;;-145.06;0.00;60892.56;4900630;28;20357;-88
2022/04/06 04:50:43;;;;;;;;;;;;;;;-145.06;0.00;60892.56;4911891;28;19916;-89
2022/04/06 04:53:23;;;;;;;;;;;;;;;-145.06;0.00;60892.56;4899551;28;20437;-88
2022/04/06 04:56:02;;;;;;;;;;;;;;;-145.06;0.00;60892.56;4901844;28;19916;-89
2022/04/06 04:58:41;;;;;;;;;;;;;;;-145.06;0.00;60892.56;4921338;28;19919;-88
2022/04/06 05:01:20;;;;;;;;;;;;;;;-145.06;0.00;60892.56;4910931;28;19951;-87
2022/04/06 05:03:59;;;;;;;;;;;;;;;-145.06;0.00;60892.56;4886538;28;19924;-88
2022/04/06 05:06:38;;;;;;;;;;;;;;;-145.06;0.00;60892.56;4898283;28;20259;-88
2022/04/06 05:09:17;;;;;;;;;;;;;;;-145.06;0.00;60892.56;4891764;28;20357;-88
2022/04/06 05:11:56;;;;;;;;;;;;;;;-145.06;0.00;60892.56;4900388;28;19916;-88
2022/04/06 05:14:35;;;;;;;;;;;;;;;-145.06;0.00;60892.56;4916021;28;19979;-88
2022/04/06 05:17:14;;;;;;;;;;;;;;;-145.06;0.00;60892.56;4923802;28;19970;-89
2022/04/06 05:19:53;;;;;;;;;;;;;;;-145.06;0.00;60892.56;4898290;28;19916;-89
2022/04/06 05:22:32;;;;;;;;;;;;;;;-145.06;0.00;60892.56;4913319;28;19912;-88
2022/04/06 05:25:12;;;;;;;;;;;;;;;-145.06;0.00;60892.56;4910611;28;20573;-89
2022/04/06 05:27:52;;;;;;;;;;;;;;;-145.06;0.00;60892.56;4897628;28;19920;-88
2022/04/06 05:30:32;;;;;;;;;;;;;;;-145.06;0.00;60892.56;4902692;28;19920;-87
2022/04/06 05:33:11;;;;;;;;;;;;;;;-145.06;0.00;60892.56;4895626;28;20174;-89
2022/04/06 05:35:50;;;;;;;;;;;;;;;-145.06;0.00;60892.56;4891583;28;19916;-89
2022/04/06 05:38:29;;;;;;;;;;;;;;;-145.06;0.00;60892.56;4900060;28;19968;-87
2022/04/06 05:41:07;;;;;;;;;;;;;;;-145.06;0.00;60892.56;4912777;28;19915;-88
2022/04/06 05:43:47;;;;;;;;;;;;;;;-145.06;0.00;60892.56;4897613;28;20369;-88
2022/04/06 05:46:26;;;;;;;;;;;;;;;-145.06;0.00;60892.56;4913369;28;19920;-88
2022/04/06 05:49:04;;;;;;;;;;;;;;;-145.06;0.00;60892.56;4893256;28;20361;-88
2022/04/06 05:51:44;;;;;;;;;;;;;;;-145.06;0.00;60892.56;4898086;28;19920;-88
2022/04/06 05:54:23;;;;;;;;;;;;;;;-145.06;0.00;60892.56;4906659;28;20385;-88
2022/04/06 05:57:02;;;;;;;;;;;;;;;-145.06;0.00;60892.56;4898345;28;20373;-88
2022/04/06 05:59:41;;;;;;;;;;;;;;;-145.06;0.00;60892.56;4887183;28;19916;-88
2022/04/06 06:02:23;;;;;;;;;;;;;;;-145.06;0.00;60892.56;4895680;28;20361;-89
2022/04/06 06:05:02;;;;;;;;;;;;;;;-145.06;0.00;60892.56;4931414;28;19964;-89
2022/04/06 06:07:42;;;;;;;;;;;;;;;-145.06;0.00;60892.56;4918900;28;20014;-88
2022/04/06 06:10:21;;;;;;;;;;;;;;;-145.06;0.00;60892.56;4899566;28;20011;-88
2022/04/06 06:13:00;;;;;;;;;;;;;;;-145.06;0.00;60892.56;4907570;28;19920;-88
2022/04/06 06:15:39;;;;;;;;;;;;;;;-145.06;0.00;60892.56;4899354;28;19916;-88
2022/04/06 06:18:18;;;;;;;;;;;;;;;-145.06;0.00;60892.56;4903405;28;19920;-89
2022/04/06 06:21:00;;;;;;;;;;;;;;;-145.06;0.00;60892.56;4923179;28;19916;-88
2022/04/06 06:23:39;;;;;;;;;;;;;;;-145.06;0.00;60892.56;4896225;28;19916;-88
2022/04/06 06:26:18;;;;;;;;;;;;;;;-145.06;0.00;60892.56;4924603;28;19912;-89
2022/04/06 06:28:57;;;;;;;;;;;;;;;-145.06;0.00;60892.56;4906743;28;20007;-89
2022/04/06 06:31:36;;;;;;;;;;;;;;;-145.06;0.00;60892.56;4902014;28;19920;-88
2022/04/06 06:34:15;;;;;;;;;;;;;;;-145.06;0.00;60892.56;4902781;28;20429;-88
2022/04/06 06:36:54;;;;;;;;;;;;;;;-145.06;0.00;60892.56;4896773;28;19924;-88
2022/04/06 06:39:33;;;;;;;;;;;;;;;-145.06;0.00;60892.56;4925081;28;19912;-90
2022/04/06 06:42:12;;;;;;;;;;;;;;;-145.06;0.00;60892.56;4901254;28;19916;-89
2022/04/06 06:44:51;;;;;;;;;;;;;;;-145.06;0.00;60892.56;4901564;28;20392;-90
2022/04/06 06:47:30;;;;;;;;;;;;;;;-145.06;0.00;60892.56;4911609;28;19911;-89
2022/04/06 06:50:10;;;;;;;;;;;;;;;-145.06;0.00;60892.56;4916112;28;19916;-90
2022/04/06 06:52:49;;;;;;;;;;;;;;;-145.06;0.00;60892.56;4898718;28;20378;-89
2022/04/06 06:55:28;;;;;;;;;;;;;;;-145.06;0.00;60892.56;4907385;28;19916;-88
2022/04/06 06:58:07;;;;;;;;;;;;;;;-145.06;0.00;60892.56;4905294;28;19924;-90
2022/04/06 07:00:46;;;;;;;;;;;;;;;-145.06;0.00;60892.56;4904860;28;19920;-90
2022/04/06 07:03:25;;;;;;;;;;;;;;;-145.06;0.00;60892.56;4906806;28;19998;-89
2022/04/06 07:06:04;;;;;;;;;;;;;;;-145.06;0.00;60892.56;4902457;28;19912;-90
2022/04/06 07:08:43;;;;;;;;;;;;;;;-145.06;0.00;60892.56;4927370;28;19912;-89
2022/04/06 07:11:22;;;;;;;;;;;;;;;-145.06;0.00;60892.56;4919510;28;19915;-89
2022/04/06 07:14:01;;;;;;;;;;;;;;;-145.06;0.00;60892.56;4898238;28;19916;-89
2022/04/06 07:16:40;;;;;;;;;;;;;;;-145.06;0.00;60892.56;4902904;28;19912;-90
2022/04/06 07:19:20;;;;;;;;;;;;;;;-145.06;0.00;60892.56;4901496;28;19912;-89
2022/04/06 07:21:59;;;;;;;;;;;;;;;-145.06;0.00;60892.56;4918169;28;19915;-90
2022/04/06 07:24:40;;;;;;;;;;;;;;;-145.06;0.00;60892.56;4919513;28;19915;-90
2022/04/06 07:27:19;;;;;;;;;;;;;;;-145.06;0.00;60892.56;4904457;28;19916;-89
2022/04/06 07:29:58;;;;;;;;;;;;;;;-145.06;0.00;60892.56;4919086;28;19916;-90
2022/04/06 07:32:37;;;;;;;;;;;;;;;-145.06;0.00;60892.56;4902994;28;19911;-89
2022/04/06 07:35:19;;;;;;;;;;;;;;;-145.06;0.00;60892.56;4935482;28;19915;-90
2022/04/06 07:37:58;;;;;;;;;;;;;;;-145.06;0.00;60892.56;4918972;28;19915;-89
2022/04/06 07:40:37;;;;;;;;;;;;;;;-145.06;0.00;60892.56;4892617;28;19916;-89
2022/04/06 07:43:16;;;;;;;;;;;;;;;-145.06;0.00;60892.56;4905129;28;20338;-89
2022/04/06 07:45:55;;;;;;;;;;;;;;;-145.06;0.00;60892.56;4921218;28;19911;-89
2022/04/06 07:48:34;;;;;;;;;;;;;;;-145.06;0.00;60892.56;4913112;28;19916;-89
2022/04/06 07:51:13;;;;;;;;;;;;;;;-145.06;0.00;60892.56;4921367;28;20353;-89
2022/04/06 07:53:52;;;;;;;;;;;;;;;-145.06;0.00;60892.56;4909421;28;19912;-89
2022/04/06 07:56:31;;;;;;;;;;;;;;;-145.06;0.00;60892.56;4921152;28;19912;-90
2022/04/06 07:59:10;;;;;;;;;;;;;;;-145.06;0.00;60892.56;4909325;28;19920;-89
2022/04/06 08:01:49;;;;;;;;;;;;;;;-145.06;0.00;60892.56;4936414;28;19961;-90
2022/04/06 08:04:28;;;;;;;;;;;;;;;-145.06;0.00;60892.56;4915307;28;20349;-90
2022/04/06 08:07:07;;;;;;;;;;;;;;;-145.06;0.00;60892.56;4926787;28;19912;-90
2022/04/06 08:09:46;;;;;;;;;;;;;;;-145.06;0.00;60892.56;4918456;28;19955;-90
2022/04/06 08:12:25;;;;;;;;;;;;;;;-145.06;0.00;60892.56;4909276;28;19955;-89
2022/04/06 08:15:04;;;;;;;;;;;;;;;-145.06;0.00;60892.56;4917396;28;19917;-89
2022/04/06 08:17:44;;;;;;;;;;;;;;;-145.06;0.00;60892.56;4905610;28;19920;-90
2022/04/06 08:20:23;;;;;;;;;;;;;;;-145.06;0.00;60892.56;4902648;28;19912;-89
2022/04/06 08:23:02;;;;;;;;;;;;;;;-145.06;0.00;60892.56;4909403;28;19916;-90
2022/04/06 08:25:41;;;;;;;;;;;;;;;-145.06;0.00;60892.56;4882175;28;19916;-90
2022/04/06 08:28:20;;;;;;;;;;;;;;;-145.06;0.00;60892.56;4904286;28;19912;-89
2022/04/06 08:30:59;;;;;;;;;;;;;;;-145.06;0.00;60892.56;4902665;28;19916;-90
2022/04/06 08:33:38;;;;;;;;;;;;;;;-145.06;0.00;60892.56;4918798;28;20482;-89
2022/04/06 08:36:17;;;;;;;;;;;;;;;-145.06;0.00;60892.56;4901180;28;19912;-90
2022/04/06 08:38:57;;;;;;;;;;;;;;;21.08;0.00;60892.56;4901004;28;19920;-90
2022/04/06 08:41:38;;;;;;;;;;;;;;;21.08;0.00;60892.56;4909008;28;22734;-90
2022/04/06 08:44:17;;;;;;;;;;;;;;;10.37;0.00;60892.56;4903292;28;20358;-90
2022/04/06 08:47:02;;;;;;;;;;;;;;;21.08;0.00;60892.56;4903449;28;19920;-90
2022/04/06 08:49:42;;;;;;;;;;;;;;;21.08;0.00;60892.56;4903161;28;19912;-90
2022/04/06 08:52:20;;;;;;;;;;;;;;;21.08;0.00;60892.56;4911962;28;20346;-90
2022/04/06 08:54:59;;;;;;;;;;;;;;;21.08;0.00;60892.56;4923304;28;19912;-90
2022/04/06 08:57:38;;;;;;;;;;;;;;;21.08;0.00;60892.56;4901136;28;20684;-90
2022/04/06 09:00:18;;;;;;;;;;;;;;;10.68;0.00;60892.56;4908977;28;20011;-90
2022/04/06 09:02:57;;;;;;;;;;;;;;;21.08;0.00;60892.56;4895201;28;19917;-90
2022/04/06 09:05:36;;;;;;;;;;;;;;;10.68;0.00;60892.56;4900844;28;19916;-90
2022/04/06 09:08:15;;;;;;;;;;;;;;;10.68;0.00;60892.56;4916318;28;20358;-90
2022/04/06 09:11:05;;;;;;;;;;;;;;;21.08;0.00;60892.56;4903166;28;19912;-90
2022/04/06 09:13:46;;;;;;;;;;;;;;;187.52;0.00;60892.56;4899133;28;19916;-90
2022/04/06 09:16:28;;;;;;;;;;;;;;;10.61;0.00;60892.56;4900806;28;20019;-90
2022/04/06 09:19:08;;;;;;;;;;;;;;;10.68;0.00;60892.56;4913491;28;20262;-90
2022/04/06 09:21:46;;;;;;;;;;;;;;;-145.06;0.00;60892.56;4909040;28;19959;-90
2022/04/06 09:24:26;;;;;;;;;;;;;;;-145.06;0.00;60892.56;4904515;28;19916;-90
2022/04/06 09:27:06;;;;;;;;;;;;;;;-145.06;0.00;60892.56;4902544;28;19916;-90
2022/04/06 09:29:48;;;;;;;;;;;;;;;-145.06;0.00;60892.56;4895198;28;20009;-90
2022/04/06 09:32:27;;;;;;;;;;;;;;;-145.06;0.00;60892.56;4910885;28;19998;-87
2022/04/06 09:35:22;;;;;;;;;;;;;;;-145.06;0.00;60892.56;4943734;28;19920;-88
2022/04/06 09:38:08;;;;;;;;;;;;;;;-145.06;0.00;60892.56;4942280;28;19908;-88
2022/04/06 09:40:47;;;;;;;;;;;;;;;-145.06;0.00;60892.56;4902296;28;19924;-86
2022/04/06 09:43:27;;;;;;;;;;;;;;;-145.06;0.00;60892.56;4908796;28;19920;-88
2022/04/06 09:49:25;;;;;;;;;;;;;;;-145.06;0.00;60892.56;4930518;28;20503;-88
2022/04/06 09:52:04;;;;;;;;;;;;;;;-145.06;0.00;60892.56;4911171;28;19916;-87
2022/04/06 09:54:43;;;;;;;;;;;;;;;-145.06;0.00;60892.56;4907527;28;20366;-87
2022/04/06 09:57:22;;;;;;;;;;;;;;;-145.06;0.00;60892.56;4907080;28;19916;-87
2022/04/06 10:00:02;;;;;;;;;;;;;;;-145.06;0.00;60892.56;4913028;28;19916;-87
2022/04/06 10:02:42;;;;;;;;;;;;;;;-145.06;0.00;60892.56;4898361;28;20019;-87
2022/04/06 10:05:21;;;;;;;;;;;;;;;-145.06;0.00;60892.56;4900483;28;20003;-87
2022/04/06 10:08:01;;;;;;;;;;;;;;;-145.06;0.00;60892.56;4900974;28;19912;-87
2022/04/06 10:10:41;;;;;;;;;;;;;;;-145.06;0.00;60892.56;4900772;28;20271;-88
2022/04/06 10:13:19;;;;;;;;;;;;;;;-145.06;0.00;60892.56;4929752;28;19912;-88
2022/04/06 10:15:59;;;;;;;;;;;;;;;-145.06;0.00;60892.56;4917040;28;20362;-88
2022/04/06 10:18:38;;;;;;;;;;;;;;;-145.06;0.00;60892.56;4901609;28;19971;-86
2022/04/06 10:21:37;;;;;;;;;;;;;;;-145.06;0.00;60892.56;4902969;28;19956;-91
2022/04/06 10:24:36;;;;;;;;;;;;;;;-145.06;0.00;60892.56;4904687;28;20262;-90
2022/04/06 10:27:23;;;;;;;;;;;;;;;-145.06;0.00;60892.56;4914974;28;19912;-89
2022/04/06 10:30:05;;;;;;;;;;;;;;;-145.06;0.00;60892.56;4918859;28;19967;-86
2022/04/06 10:32:45;;;;;;;;;;;;;;;-145.06;0.00;60892.56;4908629;28;19916;-88
2022/04/06 10:35:33;;;;;;;;;;;;;;;-145.06;0.00;60892.56;4920026;28;19999;-89
2022/04/06 10:38:14;;;;;;;;;;;;;;;-145.06;0.00;60892.56;4913501;28;19920;-88
2022/04/06 10:40:53;;;;;;;;;;;;;;;-145.06;0.00;60892.56;4896839;28;19920;-88
2022/04/06 10:43:40;;;;;;;;;;;;;;;-145.06;0.00;60892.56;4910163;28;19912;-88
2022/04/06 10:46:31;;;;;;;;;;;;;;;-145.06;0.00;60892.56;4922436;28;19912;-88
2022/04/06 10:49:13;;;;;;;;;;;;;;;-145.06;0.00;60892.56;4905284;28;19916;-88
2022/04/06 10:51:56;;;;;;;;;;;;;;;-145.06;0.00;60892.56;4897127;28;20116;-88
2022/04/06 10:54:39;;;;;;;;;;;;;;;-145.06;0.00;60892.56;4884517;28;19912;-88
2022/04/06 10:57:19;;;;;;;;;;;;;;;-145.06;0.00;60892.56;4883285;28;19916;-88
2022/04/06 11:00:12;;;;;;;;;;;;;;;-145.06;0.00;60892.56;4901237;28;20362;-87
2022/04/06 11:02:51;;;;;;;;;;;;;;;-145.06;0.00;60892.56;4924496;28;20314;-88
2022/04/06 11:05:52;;;;;;;;;;;;;;;-145.06;0.00;60892.56;4902352;28;19912;-87
2022/04/06 11:11:45;;;;;;;;;;;;;;;-145.06;0.00;60892.56;4912720;28;19916;-88
2022/04/06 11:14:24;;;;;;;;;;;;;;;-145.06;0.00;60892.56;4901417;28;19916;-88
2022/04/06 11:17:23;;;;;;;;;;;;;;;-145.06;0.00;60892.56;4908338;28;19963;-90
2022/04/06 11:20:06;;;;;;;;;;;;;;;-145.06;0.00;60892.56;4924753;28;19920;-91
2022/04/06 11:22:53;;;;;;;;;;;;;;;-145.06;0.00;60892.56;4924720;28;19952;-90
2022/04/06 11:25:32;;;;;;;;;;;;;;;-145.06;0.00;60892.56;4917565;28;20377;-90
2022/04/06 11:28:11;;;;;;;;;;;;;;;-145.06;0.00;60892.56;4924203;28;20524;-89
2022/04/06 11:30:50;;;;;;;;;;;;;;;13.00;0.00;60892.56;4901948;28;19916;-90
2022/04/06 11:33:39;;;;;;;;;;;;;;;13.15;0.00;60892.56;4906111;28;19916;-90
2022/04/06 11:36:18;;;;;;;;;;;;;;;-145.06;0.00;60892.56;4910084;28;19916;-89
2022/04/06 11:38:57;;;;;;;;;;;;;;;-145.06;0.00;60892.56;4923352;28;20416;-90
2022/04/06 11:41:42;;;;;;;;;;;;;;;-145.06;0.00;60892.56;4901706;28;20258;-91
2022/04/06 11:44:24;;;;;;;;;;;;;;;-145.06;0.00;60892.56;4929328;28;19912;-90
2022/04/06 11:47:03;;;;;;;;;;;;;;;-145.06;0.00;60892.56;4882358;28;19912;-90
2022/04/06 11:49:43;;;;;;;;;;;;;;;-145.06;0.00;60892.56;4880946;28;19912;-89
2022/04/06 11:52:22;;;;;;;;;;;;;;;-145.06;0.00;60892.56;4901023;28;19931;-89
2022/04/06 11:55:01;;;;;;;;;;;;;;;-145.06;0.00;60892.56;4901058;28;19920;-89
2022/04/06 11:57:45;;;;;;;;;;;;;;;-145.06;0.00;60892.56;4916482;28;19912;-90
2022/04/06 12:00:24;;;;;;;;;;;;;;;-145.06;0.00;60892.56;4898820;28;19924;-89
2022/04/06 12:03:03;;;;;;;;;;;;;;;-145.06;0.00;60892.56;4900343;28;19955;-89
2022/04/06 12:05:46;;;;;;;;;;;;;;;-145.06;0.00;60892.56;4922403;28;19912;-89
2022/04/06 12:08:25;;;;;;;;;;;;;;;-145.06;0.00;60892.56;4891342;28;19951;-89
2022/04/06 12:11:04;;;;;;;;;;;;;;;-145.06;0.00;60892.56;4895470;28;19916;-90
2022/04/06 12:13:44;;;;;;;;;;;;;;;-145.06;0.00;60892.56;4900418;28;19912;-89
2022/04/06 12:16:23;;;;;;;;;;;;;;;-145.06;0.00;60892.56;4922109;28;19916;-88
2022/04/06 12:19:05;;;;;;;;;;;;;;;13.24;0.00;60892.56;4917452;28;19916;-87
2022/04/06 12:21:45;;;;;;;;;;;;;;;13.24;0.00;60892.56;4901172;28;20259;-88
2022/04/06 12:24:35;;;;;;;;;;;;;;;13.20;0.00;60892.56;4910252;28;20566;-87
2022/04/06 12:27:26;;;;;;;;;;;;;;;13.12;0.00;60892.56;4901570;28;20480;-87
2022/04/06 12:30:06;;;;;;;;;;;;;;;13.12;0.00;60892.56;4895733;28;19916;-87
2022/04/06 12:32:45;;;;;;;;;;;;;;;13.12;0.00;60892.56;4899975;28;19916;-87
2022/04/06 12:35:24;;;;;;;;;;;;;;;12.96;0.00;60892.56;4901334;28;19912;-86
2022/04/06 12:38:03;;;;;;;;;;;;;;;-145.06;0.00;60892.56;4894819;28;19921;-89
2022/04/06 12:40:42;;;;;;;;;;;;;;;-145.06;0.00;60892.56;4891549;28;20366;-88
2022/04/06 12:43:22;;;;;;;;;;;;;;;-145.06;0.00;60892.56;4900718;28;19912;-88
2022/04/06 12:46:01;;;;;;;;;;;;;;;-145.06;0.00;60892.56;4900710;28;20254;-88
2022/04/06 12:48:40;;;;;;;;;;;;;;;-145.06;0.00;60892.56;4890064;28;19920;-87
2022/04/06 12:51:21;;;;;;;;;;;;;;;-145.06;0.00;60892.56;4886224;28;19960;-88
2022/04/06 12:54:07;;;;;;;;;;;;;;;-145.06;0.00;60892.56;4903946;28;20321;-87
2022/04/06 12:57:22;;;;;;;;;;;;;;;-145.06;0.00;60892.56;4896511;28;19924;-87
2022/04/06 13:00:10;;;;;;;;;;;;;;;-145.06;0.00;60892.56;4816831;28;19957;-88
2022/04/06 13:02:50;;;;;;;;;;;;;;;-145.06;0.00;60892.56;4920656;28;19920;-87
2022/04/06 13:05:31;;;;;;;;;;;;;;;-145.06;0.00;60892.56;4901386;28;20428;-87
2022/04/06 13:08:10;;;;;;;;;;;;;;;-145.06;0.00;60892.56;4918453;28;19904;-87
2022/04/06 13:10:49;;;;;;;;;;;;;;;13.12;0.00;60892.56;4919825;28;19932;-87
2022/04/06 13:13:28;;;;;;;;;;;;;;;13.12;0.00;60892.56;4897042;28;19967;-87
2022/04/06 13:16:07;;;;;;;;;;;;;;;13.12;0.00;60892.56;4894700;28;19920;-86
2022/04/06 13:18:46;;;;;;;;;;;;;;;13.04;0.00;60892.56;4889423;28;20011;-88
2022/04/06 13:21:25;;;;;;;;;;;;;;;13.12;0.00;60892.56;4920826;28;20425;-88
2022/04/06 13:24:06;;;;;;;;;;;;;;;13.12;0.00;60892.56;4908053;28;19916;-87
2022/04/06 13:26:45;;;;;;;;;;;;;;;13.12;0.00;60892.56;4905038;28;20747;-87
2022/04/06 13:29:24;;;;;;;;;;;;;;;13.12;0.00;60892.56;4898461;28;19975;-89
2022/04/06 13:32:04;;;;;;;;;;;;;;;13.12;0.00;60892.56;4921725;28;19963;-88
2022/04/06 13:34:44;;;;;;;;;;;;;;;13.12;0.00;60892.56;4902277;28;19916;-89
2022/04/06 13:37:22;;;;;;;;;;;;;;;13.12;0.00;60892.56;4899545;28;19916;-88
2022/04/06 13:40:02;;;;;;;;;;;;;;;13.12;0.00;60892.56;4929524;28;19920;-89
2022/04/06 13:42:41;;;;;;;;;;;;;;;-145.06;0.00;60892.56;4915093;28;19912;-89
2022/04/06 13:45:20;;;;;;;;;;;;;;;-145.06;0.00;60892.56;4896513;28;19996;-90
2022/04/06 13:48:00;;;;;;;;;;;;;;;-145.06;0.00;60892.56;4894476;28;19916;-88
2022/04/06 13:50:39;;;;;;;;;;;;;;;-145.06;0.00;60892.56;4898312;28;20377;-89
2022/04/06 13:53:18;;;;;;;;;;;;;;;-145.06;0.00;60892.56;4915452;28;19951;-89
2022/04/06 13:55:57;;;;;;;;;;;;;;;-145.06;0.00;60892.56;4880022;28;19920;-88
2022/04/06 13:58:36;;;;;;;;;;;;;;;-145.06;0.00;60892.56;4900488;28;20266;-89